createdAt,value
2023-04-14T00:02:35.454Z,100146.84
2023-04-14T00:05:20.926Z,100161.03
2023-04-14T00:08:06.042Z,100166.50
2023-04-14T00:10:51.341Z,100184.16
2023-04-14T00:13:36.190Z,100204.09
2023-04-14T00:16:21.174Z,100205.56
2023-04-14T00:19:06.408Z,100217.81
2023-04-14T00:21:51.828Z,100217.38
2023-04-14T00:24:37.123Z,100227.13
2023-04-14T00:27:22.053Z,100217.94
2023-04-14T00:30:08.113Z,100218.03
2023-04-14T00:32:53.069Z,100216.38
2023-04-14T00:35:38.527Z,100223.28
2023-04-14T00:38:23.680Z,100219.31
2023-04-14T00:41:08.864Z,100213.69
2023-04-14T00:43:54.987Z,100211.31
2023-04-14T00:46:40.975Z,100215.69
2023-04-14T00:49:26.788Z,100208.94
2023-04-14T00:52:11.929Z,100209.72
2023-04-14T00:54:59.194Z,100207.25
2023-04-14T00:57:45.539Z,100205.25
2023-04-14T01:00:30.940Z,100199.84
2023-04-14T01:03:16.494Z,100203.94
2023-04-14T01:06:01.781Z,100205.13
2023-04-14T01:08:48.560Z,100200.56
2023-04-14T01:11:56.759Z,100209.41
2023-04-14T01:14:53.584Z,100201.47
2023-04-14T01:17:54.163Z,100210.63
2023-04-14T01:20:46.896Z,100215.25
2023-04-14T01:23:36.194Z,100223.16
2023-04-14T01:26:30.118Z,100225.97
2023-04-14T01:29:49.718Z,100222.38
2023-04-14T01:32:39.941Z,100217.97
2023-04-14T01:35:54.240Z,100217.09
2023-04-14T01:38:42.551Z,100222.81
2023-04-14T01:41:30.001Z,100220.06
2023-04-14T01:44:19.243Z,100225.84
2023-04-14T01:47:08.041Z,100230.81
2023-04-14T01:49:55.371Z,100224.94
2023-04-14T01:52:44.404Z,100225.09
2023-04-14T01:55:31.822Z,100224.81
2023-04-14T01:58:19.383Z,100232.31
2023-04-14T02:01:05.692Z,100237.31
2023-04-14T02:03:51.307Z,100236.81
2023-04-14T02:06:38.850Z,100237.25
2023-04-14T02:09:27.941Z,100233.66
2023-04-14T02:12:13.356Z,100232.78
2023-04-14T02:15:01.766Z,100229.53
2023-04-14T02:17:49.281Z,100233.25
2023-04-14T02:20:36.012Z,100237.72
2023-04-14T02:23:21.614Z,100233.06
2023-04-14T02:26:17.265Z,100229.53
2023-04-14T02:29:09.749Z,100229.38
2023-04-14T02:32:02.623Z,100235.03
2023-04-14T02:35:10.491Z,100246.19
2023-04-14T02:38:23.672Z,100251.97
2023-04-14T02:41:13.394Z,100247.56
2023-04-14T02:44:14.411Z,100244.63
2023-04-14T02:47:10.533Z,100246.91
2023-04-14T02:49:57.070Z,100252.72
2023-04-14T02:52:44.713Z,100261.31
2023-04-14T02:55:31.654Z,100257.53
2023-04-14T02:58:17.482Z,100265.69
2023-04-14T03:01:02.730Z,100267.28
2023-04-14T03:03:49.544Z,100264.00
2023-04-14T03:06:36.793Z,100268.84
2023-04-14T03:09:22.621Z,100277.91
2023-04-14T03:12:10.496Z,100272.88
2023-04-14T03:14:55.901Z,100276.75
2023-04-14T03:17:43.055Z,100281.44
2023-04-14T03:20:29.010Z,100289.84
2023-04-14T03:23:16.587Z,100289.59
2023-04-14T03:26:03.645Z,100286.03
2023-04-14T03:28:50.608Z,100298.81
2023-04-14T03:31:37.826Z,100293.16
2023-04-14T03:34:28.047Z,100301.56
2023-04-14T03:37:16.740Z,100295.63
2023-04-14T03:40:03.126Z,100305.78
2023-04-14T03:42:49.627Z,100297.31
2023-04-14T03:45:34.810Z,100295.50
2023-04-14T03:48:21.909Z,100299.88
2023-04-14T03:51:10.392Z,100293.78
2023-04-14T03:53:57.943Z,100310.88
2023-04-14T03:56:46.035Z,100309.72
2023-04-14T03:59:33.296Z,100307.78
2023-04-14T04:02:19.094Z,100304.28
2023-04-14T04:05:04.936Z,100310.03
2023-04-14T04:07:51.854Z,100310.50
2023-04-14T04:10:38.321Z,100306.41
2023-04-14T04:13:24.150Z,100314.53
2023-04-14T04:16:11.478Z,100308.91
2023-04-14T04:18:56.964Z,100305.22
2023-04-14T04:21:45.063Z,100294.75
2023-04-14T04:24:34.769Z,100299.63
2023-04-14T04:27:27.747Z,100294.41
2023-04-14T04:30:14.620Z,100301.97
2023-04-14T04:33:03.044Z,100305.22
2023-04-14T04:35:48.708Z,100299.78
2023-04-14T04:38:33.830Z,100299.91
2023-04-14T04:41:27.890Z,100294.31
2023-04-14T04:44:12.748Z,100289.81
2023-04-14T04:46:57.712Z,100305.88
2023-04-14T04:49:42.591Z,100314.88
2023-04-14T04:52:27.873Z,100300.28
2023-04-14T04:55:13.325Z,100303.25
2023-04-14T04:57:58.333Z,100299.22
2023-04-14T05:00:43.761Z,100308.09
2023-04-14T05:03:29.103Z,100310.16
2023-04-14T05:06:14.449Z,100307.94
2023-04-14T05:09:00.148Z,100308.28
2023-04-14T05:11:45.573Z,100318.31
2023-04-14T05:14:30.572Z,100314.47
2023-04-14T05:17:15.940Z,100312.53
2023-04-14T05:20:01.321Z,100313.81
2023-04-14T05:22:46.699Z,100314.97
2023-04-14T05:25:32.017Z,100318.31
2023-04-14T05:28:17.070Z,100326.50
2023-04-14T05:31:02.468Z,100318.25
2023-04-14T05:33:47.550Z,100319.66
2023-04-14T05:36:32.927Z,100324.50
2023-04-14T05:39:18.194Z,100320.53
2023-04-14T05:42:03.338Z,100325.59
2023-04-14T05:44:48.744Z,100327.88
2023-04-14T05:47:34.136Z,100330.00
2023-04-14T05:50:19.498Z,100336.50
2023-04-14T05:53:05.087Z,100343.03
2023-04-14T05:55:53.692Z,100344.97
2023-04-14T05:58:39.000Z,100344.91
2023-04-14T06:01:24.435Z,100346.06
2023-04-14T06:04:10.075Z,100347.63
2023-04-14T06:06:55.864Z,100341.06
2023-04-14T06:09:41.801Z,100341.69
2023-04-14T06:12:27.804Z,100336.03
2023-04-14T06:15:13.095Z,100327.25
2023-04-14T06:17:58.727Z,100318.72
2023-04-14T06:20:45.006Z,100315.38
2023-04-14T06:23:30.401Z,100309.88
2023-04-14T06:26:15.394Z,100304.03
2023-04-14T06:29:01.209Z,100293.41
2023-04-14T06:31:46.613Z,100289.50
2023-04-14T06:34:31.978Z,100280.25
2023-04-14T06:37:17.637Z,100267.31
2023-04-14T06:40:02.565Z,100241.66
2023-04-14T06:42:48.118Z,100235.91
2023-04-14T06:45:33.456Z,100226.72
2023-04-14T06:48:19.002Z,100216.22
2023-04-14T06:51:04.438Z,100204.31
2023-04-14T06:53:49.747Z,100196.31
2023-04-14T06:56:34.738Z,100189.56
2023-04-14T06:59:20.076Z,100187.25
2023-04-14T07:02:05.946Z,100157.72
2023-04-14T07:04:51.285Z,100137.94
2023-04-14T07:07:39.729Z,100117.03
2023-04-14T07:10:25.247Z,100091.88
2023-04-14T07:13:10.688Z,100076.22
2023-04-14T07:15:56.393Z,100043.38
2023-04-14T07:18:41.580Z,100034.75
2023-04-14T07:21:27.530Z,100021.91
2023-04-14T07:24:15.237Z,100029.47
2023-04-14T07:27:00.779Z,99999.22
2023-04-14T07:29:45.585Z,99970.63
2023-04-14T07:32:30.604Z,99942.44
2023-04-14T07:35:16.479Z,99921.03
2023-04-14T07:38:01.574Z,99867.16
2023-04-14T07:40:46.893Z,99923.44
2023-04-14T07:43:32.741Z,99937.75
2023-04-14T07:46:18.387Z,99982.72
2023-04-14T07:49:03.565Z,99993.31
2023-04-14T07:51:49.464Z,99971.28
2023-04-14T07:54:34.840Z,99965.16
2023-04-14T07:57:20.256Z,99922.97
2023-04-14T08:00:06.800Z,99890.16
2023-04-14T08:02:52.006Z,99890.09
2023-04-14T08:05:38.015Z,99875.34
2023-04-14T08:08:24.596Z,99857.16
2023-04-14T08:11:09.852Z,99828.88
2023-04-14T08:13:55.165Z,99850.44
2023-04-14T08:16:40.795Z,99898.81
2023-04-14T08:19:25.897Z,99915.97
2023-04-14T08:22:10.795Z,99947.16
2023-04-14T08:24:56.167Z,99942.03
2023-04-14T08:27:41.680Z,99907.19
2023-04-14T08:30:27.272Z,99877.72
2023-04-14T08:33:12.306Z,99876.31
2023-04-14T08:36:00.465Z,99861.97
2023-04-14T08:38:46.119Z,99854.47
2023-04-14T08:41:34.102Z,99868.34
2023-04-14T08:44:19.377Z,99898.25
2023-04-14T08:47:07.082Z,99875.91
2023-04-14T08:50:05.491Z,99837.44
2023-04-14T08:52:55.902Z,99862.09
2023-04-14T08:55:42.615Z,99895.34
2023-04-14T08:58:28.763Z,99910.38
2023-04-14T09:01:14.822Z,99858.06
2023-04-14T09:04:01.316Z,99931.94
2023-04-14T09:06:47.091Z,99887.41
2023-04-14T09:09:32.575Z,99919.75
2023-04-14T09:12:17.750Z,99861.31
2023-04-14T09:15:03.986Z,99922.94
2023-04-14T09:17:49.127Z,99937.22
2023-04-14T09:20:40.984Z,99928.84
2023-04-14T09:23:27.318Z,99937.31
2023-04-14T09:26:12.159Z,99921.91
2023-04-14T09:28:56.965Z,99945.28
2023-04-14T09:31:44.234Z,99895.25
2023-04-14T09:34:29.740Z,99907.06
2023-04-14T09:37:14.910Z,99881.81
2023-04-14T09:40:00.274Z,99909.03
2023-04-14T09:42:45.282Z,99883.66
2023-04-14T09:45:44.232Z,99875.38
2023-04-14T09:48:29.845Z,99899.03
2023-04-14T09:51:14.957Z,99899.72
2023-04-14T09:54:04.154Z,99909.16
2023-04-14T09:56:50.010Z,99905.03
2023-04-14T09:59:37.222Z,99900.03
2023-04-14T10:02:22.809Z,99948.59
2023-04-14T10:05:08.442Z,99937.41
2023-04-14T10:07:53.550Z,99951.16
2023-04-14T10:10:38.649Z,99965.75
2023-04-14T10:13:23.996Z,99926.81
2023-04-14T10:16:09.490Z,99912.31
2023-04-14T10:18:55.781Z,99927.22
2023-04-14T10:21:40.848Z,99892.00
2023-04-14T10:24:26.377Z,99851.34
2023-04-14T10:27:11.927Z,99841.56
2023-04-14T10:29:58.375Z,99859.56
2023-04-14T10:32:45.183Z,99839.00
2023-04-14T10:35:39.744Z,99776.63
2023-04-14T10:38:45.681Z,99821.94
2023-04-14T10:41:42.924Z,99815.94
2023-04-14T10:44:29.929Z,99797.81
2023-04-14T10:47:23.367Z,99773.31
2023-04-14T10:50:11.964Z,99799.56
2023-04-14T10:52:57.040Z,99758.59
2023-04-14T10:55:51.741Z,99776.22
2023-04-14T10:58:38.166Z,99766.94
2023-04-14T11:01:29.104Z,99815.56
2023-04-14T11:04:18.119Z,99724.25
2023-04-14T11:07:09.207Z,99765.84
2023-04-14T11:10:18.633Z,99752.81
2023-04-14T11:13:11.099Z,99726.16
2023-04-14T11:16:07.202Z,99734.78
2023-04-14T11:18:54.200Z,99724.91
2023-04-14T11:21:48.782Z,99672.69
2023-04-14T11:24:34.175Z,99677.41
2023-04-14T11:27:19.341Z,99662.47
2023-04-14T11:30:06.301Z,99745.94
2023-04-14T11:32:53.785Z,99737.97
2023-04-14T11:35:41.966Z,99727.75
2023-04-14T11:38:27.607Z,99703.38
2023-04-14T11:41:15.579Z,99682.66
2023-04-14T11:44:00.953Z,99666.44
2023-04-14T11:46:46.680Z,99660.34
2023-04-14T11:49:36.068Z,99607.78
2023-04-14T11:52:21.222Z,99618.78
2023-04-14T11:55:07.174Z,99583.69
2023-04-14T11:57:52.784Z,99494.09
2023-04-14T12:00:38.067Z,99446.94
2023-04-14T12:03:28.203Z,99453.28
2023-04-14T12:06:13.794Z,99498.75
2023-04-14T12:08:59.477Z,99491.69
2023-04-14T12:11:54.462Z,99493.72
2023-04-14T12:14:41.041Z,99515.13
2023-04-14T12:17:26.686Z,99504.28
2023-04-14T12:20:15.066Z,99523.47
2023-04-14T12:23:04.404Z,99505.09
2023-04-14T12:25:50.413Z,99558.94
2023-04-14T12:28:35.888Z,99555.28
2023-04-14T12:31:27.277Z,99504.97
2023-04-14T12:34:12.823Z,99483.88
2023-04-14T12:36:57.742Z,99517.53
2023-04-14T12:39:54.216Z,99512.91
2023-04-14T12:42:47.954Z,99556.06
2023-04-14T12:45:59.863Z,99541.41
2023-04-14T12:48:46.250Z,99544.91
2023-04-14T12:51:38.850Z,99469.91
2023-04-14T12:54:23.998Z,99477.66
2023-04-14T12:57:09.282Z,99469.00
2023-04-14T12:59:54.663Z,99419.03
2023-04-14T13:02:40.139Z,99447.47
2023-04-14T13:05:25.377Z,99411.16
2023-04-14T13:08:10.345Z,99437.38
2023-04-14T13:10:55.598Z,99480.69
2023-04-14T13:13:41.300Z,99479.97
2023-04-14T13:16:27.378Z,99491.31
2023-04-14T13:19:12.853Z,99467.25
2023-04-14T13:21:58.318Z,99456.53
2023-04-14T13:24:43.482Z,99478.34
2023-04-14T13:27:28.846Z,99458.88
2023-04-14T13:30:13.678Z,99499.69
2023-04-14T13:32:59.152Z,99503.28
2023-04-14T13:35:44.616Z,99463.75
2023-04-14T13:38:30.319Z,99441.34
2023-04-14T13:41:15.909Z,99491.81
2023-04-14T13:44:00.713Z,99484.06
2023-04-14T13:46:46.343Z,99468.53
2023-04-14T13:49:31.616Z,99520.06
2023-04-14T13:52:16.985Z,99490.41
2023-04-14T13:55:02.327Z,99518.09
2023-04-14T13:57:47.123Z,99473.56
2023-04-14T14:00:32.074Z,99495.34
2023-04-14T14:03:17.564Z,99506.59
2023-04-14T14:06:02.964Z,99443.03
2023-04-14T14:09:05.275Z,99456.72
2023-04-14T14:11:51.404Z,99428.41
2023-04-14T14:14:36.334Z,99431.44
2023-04-14T14:17:21.693Z,99455.56
2023-04-14T14:20:10.942Z,99470.28
2023-04-14T14:22:56.111Z,99429.75
2023-04-14T14:25:41.778Z,99438.53
2023-04-14T14:28:27.016Z,99359.91
2023-04-14T14:31:14.148Z,99390.22
2023-04-14T14:33:59.353Z,99401.75
2023-04-14T14:36:44.554Z,99440.22
2023-04-14T14:39:29.880Z,99436.75
2023-04-14T14:42:15.248Z,99401.81
2023-04-14T14:45:01.308Z,99426.53
2023-04-14T14:47:46.445Z,99380.09
2023-04-14T14:50:31.572Z,99389.34
2023-04-14T14:53:19.777Z,99401.06
2023-04-14T14:56:05.010Z,99384.56
2023-04-14T14:58:50.471Z,99373.38
2023-04-14T15:01:35.582Z,99400.22
2023-04-14T15:04:20.863Z,99409.34
2023-04-14T15:07:06.080Z,99389.06
2023-04-14T15:09:51.065Z,99364.69
2023-04-14T15:12:36.385Z,99373.66
2023-04-14T15:15:21.595Z,99333.59
2023-04-14T15:18:07.244Z,99332.28
2023-04-14T15:20:53.672Z,99392.09
2023-04-14T15:23:38.609Z,99365.25
2023-04-14T15:26:24.038Z,99355.56
2023-04-14T15:29:09.009Z,99352.56
2023-04-14T15:31:54.324Z,99304.09
2023-04-14T15:34:39.740Z,99372.34
2023-04-14T15:37:24.585Z,99353.16
2023-04-14T15:40:10.741Z,99349.66
2023-04-14T15:42:55.997Z,99336.06
2023-04-14T15:45:41.915Z,99307.97
2023-04-14T15:48:27.190Z,99311.13
2023-04-14T15:51:12.663Z,99344.47
2023-04-14T15:53:57.871Z,99324.16
2023-04-14T15:56:43.146Z,99327.13
2023-04-14T15:59:29.367Z,99361.47
2023-04-14T16:02:14.230Z,99380.16
2023-04-14T16:04:59.668Z,99347.09
2023-04-14T16:07:45.175Z,99323.16
2023-04-14T16:10:30.421Z,99267.97
2023-04-14T16:13:15.721Z,99321.69
2023-04-14T16:16:01.006Z,99341.44
2023-04-14T16:18:47.372Z,99353.50
2023-04-14T16:21:32.310Z,99309.13
2023-04-14T16:24:17.103Z,99338.88
2023-04-14T16:27:02.416Z,99326.63
2023-04-14T16:29:47.933Z,99266.78
2023-04-14T16:32:32.829Z,99287.91
2023-04-14T16:35:18.143Z,99258.75
2023-04-14T16:38:03.305Z,99302.75
2023-04-14T16:40:55.933Z,99323.97
2023-04-14T16:43:40.894Z,99371.59
2023-04-14T16:46:26.360Z,99412.41
2023-04-14T16:49:13.490Z,99422.34
2023-04-14T16:51:58.297Z,99401.97
2023-04-14T16:54:43.775Z,99404.19
2023-04-14T16:57:29.149Z,99364.91
2023-04-14T17:00:14.839Z,99406.00
2023-04-14T17:03:00.124Z,99400.72
2023-04-14T17:05:45.318Z,99385.47
2023-04-14T17:08:30.801Z,99398.66
2023-04-14T17:11:15.782Z,99429.38
2023-04-14T17:14:01.337Z,99422.84
2023-04-14T17:16:46.359Z,99433.28
2023-04-14T17:19:31.712Z,99421.41
2023-04-14T17:22:17.144Z,99402.72
2023-04-14T17:25:05.231Z,99440.03
2023-04-14T17:27:50.254Z,99450.13
2023-04-14T17:30:37.245Z,99459.56
2023-04-14T17:33:22.560Z,99441.53
2023-04-14T17:36:12.528Z,99453.94
2023-04-14T17:38:58.024Z,99475.69
2023-04-14T17:41:43.231Z,99456.88
2023-04-14T17:44:33.521Z,99484.53
2023-04-14T17:47:18.645Z,99476.16
2023-04-14T17:50:04.786Z,99475.47
2023-04-14T17:52:50.838Z,99503.41
2023-04-14T17:55:36.728Z,99512.06
2023-04-14T17:58:23.842Z,99540.63
2023-04-14T18:01:09.030Z,99563.25
2023-04-14T18:03:54.275Z,99576.44
2023-04-14T18:06:39.562Z,99581.69
2023-04-14T18:09:24.569Z,99574.84
2023-04-14T18:12:09.962Z,99562.88
2023-04-14T18:14:55.406Z,99560.28
2023-04-14T18:17:44.313Z,99563.88
2023-04-14T18:20:29.578Z,99569.22
2023-04-14T18:23:15.305Z,99588.28
2023-04-14T18:28:51.685Z,99653.28
2023-04-14T18:31:37.129Z,99712.94
2023-04-14T18:34:22.449Z,99769.19
2023-04-14T18:37:08.018Z,99818.47
2023-04-14T18:39:53.384Z,99859.03
2023-04-14T18:42:38.887Z,99891.88
2023-04-14T18:45:24.304Z,99917.81
2023-04-14T18:48:09.564Z,99934.22
2023-04-14T18:50:59.652Z,99954.09
2023-04-14T18:53:45.203Z,99969.66
2023-04-14T18:56:30.601Z,99978.28
2023-04-14T18:59:16.201Z,99991.22
2023-04-14T19:02:01.500Z,100002.47
2023-04-14T19:04:46.941Z,100008.50
2023-04-14T19:07:32.369Z,100021.47
2023-04-14T19:10:18.236Z,100018.00
2023-04-14T19:13:03.564Z,100026.63
2023-04-14T19:15:49.007Z,100032.66
2023-04-14T19:18:35.024Z,100031.78
2023-04-14T19:21:20.604Z,100035.22
2023-04-14T19:24:06.254Z,100038.69
2023-04-14T19:26:51.227Z,100029.19
2023-04-14T19:29:36.003Z,100031.69
2023-04-14T19:32:21.399Z,100029.13
2023-04-14T19:35:07.285Z,100045.53
2023-04-14T19:37:52.685Z,100032.59
2023-04-14T19:40:38.288Z,100041.25
2023-04-14T19:43:23.409Z,100046.38
2023-04-14T19:46:08.823Z,100038.56
2023-04-14T19:48:54.050Z,100050.59
2023-04-14T19:51:39.627Z,100054.91
2023-04-14T19:54:24.797Z,100050.59
2023-04-14T19:57:10.096Z,100057.47
2023-04-14T19:59:55.474Z,100056.59
2023-04-14T20:02:41.214Z,100064.25
2023-04-14T20:05:26.804Z,100065.16
2023-04-14T20:08:12.321Z,100059.97
2023-04-14T20:10:57.593Z,100060.84
2023-04-14T20:13:43.262Z,100061.66
2023-04-14T20:16:28.536Z,100068.47
2023-04-14T20:19:13.814Z,100068.41
2023-04-14T20:21:59.230Z,100076.06
2023-04-14T20:24:44.623Z,100086.44
2023-04-14T20:27:29.798Z,100084.75
2023-04-14T20:30:15.344Z,100082.91
2023-04-14T20:33:02.062Z,100087.25
2023-04-14T20:35:48.962Z,100094.97
2023-04-14T20:38:34.351Z,100100.03
2023-04-14T20:41:19.679Z,100102.56
2023-04-14T20:44:04.539Z,100102.56
2023-04-14T20:46:49.962Z,100106.91
2023-04-14T20:49:35.052Z,100106.84
2023-04-14T20:52:20.486Z,100106.72
2023-04-14T20:55:06.487Z,100112.75
2023-04-14T20:57:52.272Z,100112.72
2023-04-14T21:00:37.366Z,100108.44
2023-04-14T21:03:23.064Z,100108.44
2023-04-14T21:06:08.373Z,100105.78
2023-04-14T21:08:53.417Z,100097.91
2023-04-14T21:11:38.175Z,100102.28
2023-04-14T21:15:28.092Z,100102.28
2023-04-14T21:17:28.308Z,100105.66
2023-04-14T21:20:13.672Z,100097.94
2023-04-14T21:22:58.991Z,100097.84
2023-04-14T21:25:44.369Z,100100.38
2023-04-14T21:28:29.765Z,100095.13
2023-04-14T21:31:15.359Z,100103.50
2023-04-14T21:34:00.706Z,100115.31
2023-04-14T21:36:46.480Z,100125.66
2023-04-14T21:39:31.344Z,100124.72
2023-04-14T21:42:16.748Z,100133.13
2023-04-14T21:45:01.759Z,100132.94
2023-04-14T21:47:47.300Z,100138.38
2023-04-14T21:50:33.288Z,100134.63
2023-04-14T21:53:18.353Z,100137.16
2023-04-14T21:56:10.188Z,100137.09
2023-04-14T21:58:56.171Z,100141.19
2023-04-14T22:01:41.752Z,100136.88
2023-04-14T22:04:35.903Z,100138.38
2023-04-14T22:07:21.169Z,100140.16
2023-04-14T22:10:06.502Z,100138.28
2023-04-14T22:12:51.710Z,100134.00
2023-04-14T22:15:37.094Z,100141.47
2023-04-14T22:18:23.724Z,100144.84
2023-04-14T22:21:10.532Z,100141.31
2023-04-14T22:23:56.855Z,100142.94
2023-04-14T22:26:42.073Z,100146.91
2023-04-14T22:29:27.413Z,100151.38
2023-04-14T22:32:12.703Z,100148.75
2023-04-14T22:34:58.025Z,100152.75
2023-04-14T22:37:43.387Z,100159.44
2023-04-14T22:40:28.737Z,100151.00
2023-04-14T22:43:14.151Z,100163.00
2023-04-14T22:45:59.607Z,100164.50
2023-04-14T22:48:44.919Z,100165.28
2023-04-14T22:51:30.427Z,100165.44
2023-04-14T22:54:15.279Z,100164.16
2023-04-14T22:57:00.653Z,100169.25
2023-04-14T22:59:46.327Z,100173.34
2023-04-14T23:02:31.407Z,100169.25
2023-04-14T23:05:17.188Z,100167.56
2023-04-14T23:08:02.466Z,100165.38
2023-04-14T23:10:47.348Z,100165.06
2023-04-14T23:13:32.811Z,100168.56
2023-04-14T23:16:18.636Z,100168.53
2023-04-14T23:19:04.361Z,100162.50
2023-04-14T23:21:49.529Z,100167.94
2023-04-14T23:24:34.981Z,100181.41
2023-04-14T23:27:20.187Z,100178.22
2023-04-14T23:30:06.379Z,100177.56
2023-04-14T23:32:51.757Z,100186.13
2023-04-14T23:35:37.098Z,100187.72
2023-04-14T23:38:22.367Z,100185.22
2023-04-14T23:41:07.778Z,100178.22
2023-04-14T23:43:52.700Z,100184.94
2023-04-14T23:46:38.146Z,100174.66
2023-04-14T23:49:33.900Z,100177.97
2023-04-14T23:52:19.948Z,100169.22
2023-04-14T23:55:05.479Z,100183.06
